sensor_id;sensor_type;location;lat;lon;timestamp;P1;durP1;ratioP1;P2;durP2;ratioP2
42742;SDS011;28397;44.552;-0.848;2023-04-25T00:02:02;1.58;;;1.30;;
42742;SDS011;28397;44.552;-0.848;2023-04-25T00:04:28;1.83;;;1.60;;
42742;SDS011;28397;44.552;-0.848;2023-04-25T00:06:54;2.00;;;1.40;;
42742;SDS011;28397;44.552;-0.848;2023-04-25T00:09:21;1.92;;;1.48;;
42742;SDS011;28397;44.552;-0.848;2023-04-25T00:11:47;3.10;;;1.65;;
42742;SDS011;28397;44.552;-0.848;2023-04-25T00:14:13;2.60;;;1.60;;
42742;SDS011;28397;44.552;-0.848;2023-04-25T00:16:39;1.88;;;1.50;;
42742;SDS011;28397;44.552;-0.848;2023-04-25T00:19:06;1.88;;;1.70;;
42742;SDS011;28397;44.552;-0.848;2023-04-25T00:21:32;3.15;;;1.58;;
42742;SDS011;28397;44.552;-0.848;2023-04-25T00:23:58;2.20;;;1.70;;
42742;SDS011;28397;44.552;-0.848;2023-04-25T00:26:24;1.95;;;1.75;;
42742;SDS011;28397;44.552;-0.848;2023-04-25T00:28:50;1.98;;;1.50;;
42742;SDS011;28397;44.552;-0.848;2023-04-25T00:31:16;2.20;;;1.60;;
42742;SDS011;28397;44.552;-0.848;2023-04-25T00:33:42;2.25;;;1.50;;
42742;SDS011;28397;44.552;-0.848;2023-04-25T00:36:08;1.75;;;1.33;;
42742;SDS011;28397;44.552;-0.848;2023-04-25T00:38:34;2.15;;;1.00;;
42742;SDS011;28397;44.552;-0.848;2023-04-25T00:41:00;0.90;;;0.90;;
42742;SDS011;28397;44.552;-0.848;2023-04-25T00:43:27;0.80;;;0.80;;
42742;SDS011;28397;44.552;-0.848;2023-04-25T00:45:53;1.00;;;1.00;;
42742;SDS011;28397;44.552;-0.848;2023-04-25T00:48:21;1.00;;;1.00;;
42742;SDS011;28397;44.552;-0.848;2023-04-25T00:50:54;0.90;;;0.90;;
42742;SDS011;28397;44.552;-0.848;2023-04-25T00:53:22;1.08;;;1.00;;
42742;SDS011;28397;44.552;-0.848;2023-04-25T00:55:49;1.00;;;0.90;;
42742;SDS011;28397;44.552;-0.848;2023-04-25T00:58:18;0.95;;;0.95;;
42742;SDS011;28397;44.552;-0.848;2023-04-25T01:00:45;1.00;;;1.00;;
42742;SDS011;28397;44.552;-0.848;2023-04-25T01:03:15;1.23;;;1.13;;
42742;SDS011;28397;44.552;-0.848;2023-04-25T01:05:42;1.00;;;1.00;;
42742;SDS011;28397;44.552;-0.848;2023-04-25T01:08:08;1.27;;;1.17;;
42742;SDS011;28397;44.552;-0.848;2023-04-25T01:10:34;1.00;;;1.00;;
42742;SDS011;28397;44.552;-0.848;2023-04-25T01:13:00;1.20;;;1.10;;
42742;SDS011;28397;44.552;-0.848;2023-04-25T01:15:26;1.17;;;1.10;;
42742;SDS011;28397;44.552;-0.848;2023-04-25T01:17:52;1.27;;;1.20;;
42742;SDS011;28397;44.552;-0.848;2023-04-25T01:20:19;1.08;;;1.08;;
42742;SDS011;28397;44.552;-0.848;2023-04-25T01:22:47;1.10;;;1.10;;
42742;SDS011;28397;44.552;-0.848;2023-04-25T01:25:14;1.40;;;1.30;;
42742;SDS011;28397;44.552;-0.848;2023-04-25T01:27:40;1.60;;;1.40;;
42742;SDS011;28397;44.552;-0.848;2023-04-25T01:30:06;1.27;;;1.20;;
42742;SDS011;28397;44.552;-0.848;2023-04-25T01:32:32;1.55;;;1.35;;
42742;SDS011;28397;44.552;-0.848;2023-04-25T01:35:04;1.33;;;1.23;;
42742;SDS011;28397;44.552;-0.848;2023-04-25T01:37:35;1.25;;;1.17;;
42742;SDS011;28397;44.552;-0.848;2023-04-25T01:40:08;1.50;;;1.40;;
42742;SDS011;28397;44.552;-0.848;2023-04-25T01:42:39;1.92;;;1.30;;
42742;SDS011;28397;44.552;-0.848;2023-04-25T01:45:06;1.45;;;1.35;;
42742;SDS011;28397;44.552;-0.848;2023-04-25T01:47:33;1.40;;;1.30;;
42742;SDS011;28397;44.552;-0.848;2023-04-25T01:50:05;1.40;;;1.30;;
42742;SDS011;28397;44.552;-0.848;2023-04-25T01:52:32;1.92;;;1.50;;
42742;SDS011;28397;44.552;-0.848;2023-04-25T01:54:57;1.63;;;1.40;;
42742;SDS011;28397;44.552;-0.848;2023-04-25T01:57:26;1.48;;;1.38;;
42742;SDS011;28397;44.552;-0.848;2023-04-25T01:59:53;2.25;;;1.40;;
42742;SDS011;28397;44.552;-0.848;2023-04-25T02:02:23;1.42;;;1.33;;
42742;SDS011;28397;44.552;-0.848;2023-04-25T02:04:49;1.40;;;1.30;;
42742;SDS011;28397;44.552;-0.848;2023-04-25T02:07:14;2.45;;;1.30;;
42742;SDS011;28397;44.552;-0.848;2023-04-25T02:09:40;1.88;;;1.17;;
42742;SDS011;28397;44.552;-0.848;2023-04-25T02:12:07;1.38;;;1.20;;
42742;SDS011;28397;44.552;-0.848;2023-04-25T02:14:34;2.33;;;1.20;;
42742;SDS011;28397;44.552;-0.848;2023-04-25T02:17:00;1.30;;;1.20;;
42742;SDS011;28397;44.552;-0.848;2023-04-25T02:19:25;1.13;;;1.10;;
42742;SDS011;28397;44.552;-0.848;2023-04-25T02:21:51;1.63;;;1.30;;
42742;SDS011;28397;44.552;-0.848;2023-04-25T02:24:17;1.40;;;1.27;;
42742;SDS011;28397;44.552;-0.848;2023-04-25T02:26:42;1.45;;;1.20;;
42742;SDS011;28397;44.552;-0.848;2023-04-25T02:29:09;2.03;;;1.40;;
42742;SDS011;28397;44.552;-0.848;2023-04-25T02:31:35;1.55;;;1.42;;
42742;SDS011;28397;44.552;-0.848;2023-04-25T02:34:00;1.63;;;1.52;;
42742;SDS011;28397;44.552;-0.848;2023-04-25T02:36:26;1.55;;;1.40;;
42742;SDS011;28397;44.552;-0.848;2023-04-25T02:38:52;2.17;;;1.50;;
42742;SDS011;28397;44.552;-0.848;2023-04-25T02:41:18;1.58;;;1.48;;
42742;SDS011;28397;44.552;-0.848;2023-04-25T02:43:45;2.22;;;1.50;;
42742;SDS011;28397;44.552;-0.848;2023-04-25T02:46:11;1.67;;;1.58;;
42742;SDS011;28397;44.552;-0.848;2023-04-25T02:48:37;2.05;;;1.42;;
42742;SDS011;28397;44.552;-0.848;2023-04-25T02:51:02;2.67;;;1.52;;
42742;SDS011;28397;44.552;-0.848;2023-04-25T02:53:28;1.63;;;1.52;;
42742;SDS011;28397;44.552;-0.848;2023-04-25T02:55:53;2.00;;;1.90;;
42742;SDS011;28397;44.552;-0.848;2023-04-25T02:58:19;1.92;;;1.83;;
42742;SDS011;28397;44.552;-0.848;2023-04-25T03:00:45;2.35;;;2.00;;
42742;SDS011;28397;44.552;-0.848;2023-04-25T03:03:11;2.03;;;1.90;;
42742;SDS011;28397;44.552;-0.848;2023-04-25T03:05:36;2.03;;;1.92;;
42742;SDS011;28397;44.552;-0.848;2023-04-25T03:08:02;2.45;;;2.25;;
42742;SDS011;28397;44.552;-0.848;2023-04-25T03:10:28;2.80;;;2.60;;
42742;SDS011;28397;44.552;-0.848;2023-04-25T03:12:53;3.28;;;3.08;;
42742;SDS011;28397;44.552;-0.848;2023-04-25T03:15:19;3.30;;;3.00;;
42742;SDS011;28397;44.552;-0.848;2023-04-25T03:17:45;3.45;;;3.15;;
42742;SDS011;28397;44.552;-0.848;2023-04-25T03:20:10;3.00;;;2.80;;
42742;SDS011;28397;44.552;-0.848;2023-04-25T03:22:36;2.83;;;2.63;;
42742;SDS011;28397;44.552;-0.848;2023-04-25T03:25:02;2.25;;;2.10;;
42742;SDS011;28397;44.552;-0.848;2023-04-25T03:27:28;1.67;;;1.58;;
42742;SDS011;28397;44.552;-0.848;2023-04-25T03:29:54;2.20;;;2.00;;
42742;SDS011;28397;44.552;-0.848;2023-04-25T03:32:20;2.28;;;2.00;;
42742;SDS011;28397;44.552;-0.848;2023-04-25T03:34:45;2.22;;;2.03;;
42742;SDS011;28397;44.552;-0.848;2023-04-25T03:37:11;2.55;;;2.13;;
42742;SDS011;28397;44.552;-0.848;2023-04-25T03:39:37;2.60;;;1.80;;
42742;SDS011;28397;44.552;-0.848;2023-04-25T03:42:03;2.17;;;1.80;;
42742;SDS011;28397;44.552;-0.848;2023-04-25T03:44:29;2.10;;;1.90;;
42742;SDS011;28397;44.552;-0.848;2023-04-25T03:46:55;2.10;;;2.00;;
42742;SDS011;28397;44.552;-0.848;2023-04-25T03:49:20;1.80;;;1.70;;
42742;SDS011;28397;44.552;-0.848;2023-04-25T03:51:46;2.33;;;2.13;;
42742;SDS011;28397;44.552;-0.848;2023-04-25T03:54:12;2.45;;;2.22;;
42742;SDS011;28397;44.552;-0.848;2023-04-25T03:56:37;2.38;;;2.20;;
42742;SDS011;28397;44.552;-0.848;2023-04-25T03:59:03;2.40;;;2.20;;
42742;SDS011;28397;44.552;-0.848;2023-04-25T04:01:29;2.83;;;2.47;;
42742;SDS011;28397;44.552;-0.848;2023-04-25T04:03:54;2.40;;;2.20;;
42742;SDS011;28397;44.552;-0.848;2023-04-25T04:06:20;2.90;;;2.70;;
42742;SDS011;28397;44.552;-0.848;2023-04-25T04:08:46;3.10;;;2.90;;
42742;SDS011;28397;44.552;-0.848;2023-04-25T04:11:12;3.30;;;3.10;;
42742;SDS011;28397;44.552;-0.848;2023-04-25T04:13:37;3.22;;;3.03;;
42742;SDS011;28397;44.552;-0.848;2023-04-25T04:16:03;3.10;;;2.90;;
42742;SDS011;28397;44.552;-0.848;2023-04-25T04:18:29;3.22;;;2.88;;
42742;SDS011;28397;44.552;-0.848;2023-04-25T04:20:55;3.13;;;2.92;;
42742;SDS011;28397;44.552;-0.848;2023-04-25T04:23:23;3.17;;;2.88;;
42742;SDS011;28397;44.552;-0.848;2023-04-25T04:25:49;3.35;;;3.10;;
42742;SDS011;28397;44.552;-0.848;2023-04-25T04:28:14;3.20;;;2.92;;
42742;SDS011;28397;44.552;-0.848;2023-04-25T04:30:41;3.60;;;3.30;;
42742;SDS011;28397;44.552;-0.848;2023-04-25T04:33:07;3.90;;;3.60;;
42742;SDS011;28397;44.552;-0.848;2023-04-25T04:35:34;4.75;;;4.25;;
42742;SDS011;28397;44.552;-0.848;2023-04-25T04:37:59;4.93;;;4.53;;
42742;SDS011;28397;44.552;-0.848;2023-04-25T04:40:25;4.85;;;4.45;;
42742;SDS011;28397;44.552;-0.848;2023-04-25T04:42:51;4.18;;;3.88;;
42742;SDS011;28397;44.552;-0.848;2023-04-25T04:45:18;3.65;;;3.20;;
42742;SDS011;28397;44.552;-0.848;2023-04-25T04:47:44;3.50;;;3.20;;
42742;SDS011;28397;44.552;-0.848;2023-04-25T04:50:10;3.78;;;3.40;;
42742;SDS011;28397;44.552;-0.848;2023-04-25T04:52:36;3.40;;;3.10;;
42742;SDS011;28397;44.552;-0.848;2023-04-25T04:55:03;2.60;;;2.40;;
42742;SDS011;28397;44.552;-0.848;2023-04-25T04:57:31;2.45;;;2.20;;
42742;SDS011;28397;44.552;-0.848;2023-04-25T04:59:58;2.50;;;2.30;;
42742;SDS011;28397;44.552;-0.848;2023-04-25T05:02:24;2.80;;;2.60;;
42742;SDS011;28397;44.552;-0.848;2023-04-25T05:04:50;3.45;;;2.85;;
42742;SDS011;28397;44.552;-0.848;2023-04-25T05:07:16;2.80;;;2.60;;
42742;SDS011;28397;44.552;-0.848;2023-04-25T05:09:43;3.10;;;2.90;;
42742;SDS011;28397;44.552;-0.848;2023-04-25T05:12:09;2.60;;;2.40;;
42742;SDS011;28397;44.552;-0.848;2023-04-25T05:14:34;2.60;;;2.45;;
42742;SDS011;28397;44.552;-0.848;2023-04-25T05:17:00;2.67;;;2.47;;
42742;SDS011;28397;44.552;-0.848;2023-04-25T05:19:26;2.40;;;2.20;;
42742;SDS011;28397;44.552;-0.848;2023-04-25T05:21:51;2.08;;;1.98;;
42742;SDS011;28397;44.552;-0.848;2023-04-25T05:24:17;2.38;;;2.17;;
42742;SDS011;28397;44.552;-0.848;2023-04-25T05:26:43;1.90;;;1.80;;
42742;SDS011;28397;44.552;-0.848;2023-04-25T05:29:09;1.92;;;1.83;;
42742;SDS011;28397;44.552;-0.848;2023-04-25T05:31:35;2.30;;;2.10;;
42742;SDS011;28397;44.552;-0.848;2023-04-25T05:34:01;2.03;;;1.70;;
42742;SDS011;28397;44.552;-0.848;2023-04-25T05:36:27;2.30;;;2.10;;
42742;SDS011;28397;44.552;-0.848;2023-04-25T05:38:53;2.10;;;2.00;;
42742;SDS011;28397;44.552;-0.848;2023-04-25T05:41:18;2.00;;;1.90;;
42742;SDS011;28397;44.552;-0.848;2023-04-25T05:43:45;2.10;;;2.00;;
42742;SDS011;28397;44.552;-0.848;2023-04-25T05:46:12;3.05;;;2.17;;
42742;SDS011;28397;44.552;-0.848;2023-04-25T05:48:39;2.40;;;2.10;;
42742;SDS011;28397;44.552;-0.848;2023-04-25T05:51:05;2.22;;;2.03;;
42742;SDS011;28397;44.552;-0.848;2023-04-25T05:53:30;2.22;;;2.03;;
42742;SDS011;28397;44.552;-0.848;2023-04-25T05:55:56;2.65;;;2.17;;
42742;SDS011;28397;44.552;-0.848;2023-04-25T05:58:22;2.40;;;2.20;;
42742;SDS011;28397;44.552;-0.848;2023-04-25T06:00:48;2.03;;;1.92;;
42742;SDS011;28397;44.552;-0.848;2023-04-25T06:03:13;2.22;;;2.13;;
42742;SDS011;28397;44.552;-0.848;2023-04-25T06:05:43;2.20;;;2.10;;
42742;SDS011;28397;44.552;-0.848;2023-04-25T06:08:09;2.30;;;2.10;;
42742;SDS011;28397;44.552;-0.848;2023-04-25T06:10:35;2.28;;;2.10;;
42742;SDS011;28397;44.552;-0.848;2023-04-25T06:13:01;2.40;;;2.05;;
42742;SDS011;28397;44.552;-0.848;2023-04-25T06:15:27;2.30;;;2.20;;
42742;SDS011;28397;44.552;-0.848;2023-04-25T06:17:53;2.63;;;2.30;;
42742;SDS011;28397;44.552;-0.848;2023-04-25T06:20:19;2.60;;;2.40;;
42742;SDS011;28397;44.552;-0.848;2023-04-25T06:22:49;2.58;;;2.38;;
42742;SDS011;28397;44.552;-0.848;2023-04-25T06:25:16;2.42;;;2.33;;
42742;SDS011;28397;44.552;-0.848;2023-04-25T06:27:42;2.47;;;2.25;;
42742;SDS011;28397;44.552;-0.848;2023-04-25T06:30:08;2.97;;;2.75;;
42742;SDS011;28397;44.552;-0.848;2023-04-25T06:32:36;3.40;;;3.10;;
42742;SDS011;28397;44.552;-0.848;2023-04-25T06:35:02;3.80;;;3.50;;
42742;SDS011;28397;44.552;-0.848;2023-04-25T06:37:28;4.60;;;4.20;;
42742;SDS011;28397;44.552;-0.848;2023-04-25T06:39:54;7.05;;;6.28;;
42742;SDS011;28397;44.552;-0.848;2023-04-25T06:42:20;6.53;;;5.95;;
42742;SDS011;28397;44.552;-0.848;2023-04-25T06:44:45;7.20;;;6.60;;
42742;SDS011;28397;44.552;-0.848;2023-04-25T06:47:11;7.78;;;7.07;;
42742;SDS011;28397;44.552;-0.848;2023-04-25T06:49:37;7.85;;;7.15;;
42742;SDS011;28397;44.552;-0.848;2023-04-25T06:52:02;7.63;;;7.03;;
42742;SDS011;28397;44.552;-0.848;2023-04-25T06:54:28;7.90;;;7.22;;
42742;SDS011;28397;44.552;-0.848;2023-04-25T06:56:55;7.20;;;6.60;;
42742;SDS011;28397;44.552;-0.848;2023-04-25T06:59:21;6.63;;;6.03;;
42742;SDS011;28397;44.552;-0.848;2023-04-25T07:01:47;5.82;;;5.32;;
42742;SDS011;28397;44.552;-0.848;2023-04-25T07:04:12;6.30;;;5.68;;
42742;SDS011;28397;44.552;-0.848;2023-04-25T07:06:38;6.28;;;5.68;;
42742;SDS011;28397;44.552;-0.848;2023-04-25T07:09:07;5.53;;;5.13;;
42742;SDS011;28397;44.552;-0.848;2023-04-25T07:11:35;4.57;;;4.28;;
42742;SDS011;28397;44.552;-0.848;2023-04-25T07:14:01;4.03;;;3.65;;
42742;SDS011;28397;44.552;-0.848;2023-04-25T07:16:27;3.78;;;3.47;;
42742;SDS011;28397;44.552;-0.848;2023-04-25T07:18:53;2.63;;;2.40;;
42742;SDS011;28397;44.552;-0.848;2023-04-25T07:21:18;3.03;;;2.30;;
42742;SDS011;28397;44.552;-0.848;2023-04-25T07:23:44;2.20;;;1.90;;
42742;SDS011;28397;44.552;-0.848;2023-04-25T07:26:10;2.40;;;1.95;;
42742;SDS011;28397;44.552;-0.848;2023-04-25T07:28:36;2.88;;;2.20;;
42742;SDS011;28397;44.552;-0.848;2023-04-25T07:31:02;3.53;;;2.08;;
42742;SDS011;28397;44.552;-0.848;2023-04-25T07:33:28;2.30;;;2.10;;
42742;SDS011;28397;44.552;-0.848;2023-04-25T07:35:54;2.30;;;2.00;;
42742;SDS011;28397;44.552;-0.848;2023-04-25T07:38:20;3.08;;;1.77;;
42742;SDS011;28397;44.552;-0.848;2023-04-25T07:40:49;2.10;;;2.00;;
42742;SDS011;28397;44.552;-0.848;2023-04-25T07:43:15;2.20;;;2.00;;
42742;SDS011;28397;44.552;-0.848;2023-04-25T07:45:45;2.05;;;1.92;;
42742;SDS011;28397;44.552;-0.848;2023-04-25T07:48:11;4.05;;;2.10;;
42742;SDS011;28397;44.552;-0.848;2023-04-25T07:50:41;3.13;;;2.42;;
42742;SDS011;28397;44.552;-0.848;2023-04-25T07:53:06;3.10;;;2.30;;
42742;SDS011;28397;44.552;-0.848;2023-04-25T07:55:32;5.18;;;2.63;;
42742;SDS011;28397;44.552;-0.848;2023-04-25T07:57:58;4.43;;;2.60;;
42742;SDS011;28397;44.552;-0.848;2023-04-25T08:00:23;2.75;;;2.30;;
42742;SDS011;28397;44.552;-0.848;2023-04-25T08:02:49;3.28;;;2.20;;
42742;SDS011;28397;44.552;-0.848;2023-04-25T08:05:16;3.25;;;2.50;;
42742;SDS011;28397;44.552;-0.848;2023-04-25T08:07:42;3.25;;;2.33;;
42742;SDS011;28397;44.552;-0.848;2023-04-25T08:10:08;3.22;;;2.47;;
42742;SDS011;28397;44.552;-0.848;2023-04-25T08:12:34;2.85;;;2.60;;
42742;SDS011;28397;44.552;-0.848;2023-04-25T08:15:00;2.97;;;2.50;;
42742;SDS011;28397;44.552;-0.848;2023-04-25T08:17:26;4.93;;;2.80;;
42742;SDS011;28397;44.552;-0.848;2023-04-25T08:19:53;4.95;;;3.40;;
42742;SDS011;28397;44.552;-0.848;2023-04-25T08:22:20;5.32;;;2.92;;
42742;SDS011;28397;44.552;-0.848;2023-04-25T08:24:46;6.40;;;3.05;;
42742;SDS011;28397;44.552;-0.848;2023-04-25T08:27:11;2.92;;;2.70;;
42742;SDS011;28397;44.552;-0.848;2023-04-25T08:29:37;3.05;;;2.60;;
42742;SDS011;28397;44.552;-0.848;2023-04-25T08:32:03;4.50;;;2.83;;
42742;SDS011;28397;44.552;-0.848;2023-04-25T08:34:28;4.30;;;2.80;;
42742;SDS011;28397;44.552;-0.848;2023-04-25T08:36:54;3.45;;;2.72;;
42742;SDS011;28397;44.552;-0.848;2023-04-25T08:39:20;5.40;;;2.70;;
42742;SDS011;28397;44.552;-0.848;2023-04-25T08:41:45;4.28;;;3.00;;
42742;SDS011;28397;44.552;-0.848;2023-04-25T08:44:11;3.72;;;2.70;;
42742;SDS011;28397;44.552;-0.848;2023-04-25T08:46:38;2.97;;;2.70;;
42742;SDS011;28397;44.552;-0.848;2023-04-25T08:49:06;4.47;;;2.72;;
42742;SDS011;28397;44.552;-0.848;2023-04-25T08:51:32;3.85;;;2.72;;
42742;SDS011;28397;44.552;-0.848;2023-04-25T08:54:08;5.65;;;2.92;;
42742;SDS011;28397;44.552;-0.848;2023-04-25T08:56:43;4.20;;;3.10;;
42742;SDS011;28397;44.552;-0.848;2023-04-25T08:59:10;3.78;;;2.80;;
42742;SDS011;28397;44.552;-0.848;2023-04-25T09:01:39;4.55;;;2.80;;
42742;SDS011;28397;44.552;-0.848;2023-04-25T09:04:05;3.28;;;2.72;;
42742;SDS011;28397;44.552;-0.848;2023-04-25T09:06:31;6.28;;;3.20;;
42742;SDS011;28397;44.552;-0.848;2023-04-25T09:09:05;4.53;;;3.13;;
42742;SDS011;28397;44.552;-0.848;2023-04-25T09:11:33;4.57;;;3.10;;
42742;SDS011;28397;44.552;-0.848;2023-04-25T09:14:13;4.47;;;3.30;;
42742;SDS011;28397;44.552;-0.848;2023-04-25T09:21:54;5.65;;;3.90;;
42742;SDS011;28397;44.552;-0.848;2023-04-25T09:24:39;3.85;;;3.55;;
42742;SDS011;28397;44.552;-0.848;2023-04-25T09:27:09;4.50;;;3.83;;
42742;SDS011;28397;44.552;-0.848;2023-04-25T09:29:37;4.80;;;3.78;;
42742;SDS011;28397;44.552;-0.848;2023-04-25T09:32:25;5.00;;;4.00;;
42742;SDS011;28397;44.552;-0.848;2023-04-25T09:34:54;6.07;;;4.00;;
42742;SDS011;28397;44.552;-0.848;2023-04-25T09:37:22;4.18;;;3.78;;
42742;SDS011;28397;44.552;-0.848;2023-04-25T09:39:49;4.78;;;3.92;;
42742;SDS011;28397;44.552;-0.848;2023-04-25T09:42:30;3.60;;;3.20;;
42742;SDS011;28397;44.552;-0.848;2023-04-25T09:44:57;4.38;;;3.20;;
42742;SDS011;28397;44.552;-0.848;2023-04-25T09:47:25;5.35;;;3.08;;
42742;SDS011;28397;44.552;-0.848;2023-04-25T09:49:52;19.35;;;4.47;;
42742;SDS011;28397;44.552;-0.848;2023-04-25T09:52:22;71.38;;;10.27;;
42742;SDS011;28397;44.552;-0.848;2023-04-25T09:54:49;7.50;;;4.15;;
42742;SDS011;28397;44.552;-0.848;2023-04-25T09:57:23;4.55;;;3.13;;
42742;SDS011;28397;44.552;-0.848;2023-04-25T09:59:51;5.32;;;3.00;;
42742;SDS011;28397;44.552;-0.848;2023-04-25T10:02:19;115.03;;;12.45;;
42742;SDS011;28397;44.552;-0.848;2023-04-25T10:05:05;28.58;;;4.63;;
42742;SDS011;28397;44.552;-0.848;2023-04-25T10:07:32;10.23;;;3.10;;
42742;SDS011;28397;44.552;-0.848;2023-04-25T10:10:01;4.68;;;2.90;;
42742;SDS011;28397;44.552;-0.848;2023-04-25T10:12:28;3.72;;;2.60;;
42742;SDS011;28397;44.552;-0.848;2023-04-25T10:14:56;4.43;;;2.92;;
42742;SDS011;28397;44.552;-0.848;2023-04-25T10:17:23;4.18;;;2.70;;
42742;SDS011;28397;44.552;-0.848;2023-04-25T10:19:52;4.22;;;2.35;;
42742;SDS011;28397;44.552;-0.848;2023-04-25T10:22:35;4.25;;;2.83;;
42742;SDS011;28397;44.552;-0.848;2023-04-25T10:25:04;4.15;;;2.70;;
42742;SDS011;28397;44.552;-0.848;2023-04-25T10:27:31;3.85;;;2.75;;
42742;SDS011;28397;44.552;-0.848;2023-04-25T10:32:31;3.35;;;2.70;;
42742;SDS011;28397;44.552;-0.848;2023-04-25T10:37:57;3.75;;;3.00;;
42742;SDS011;28397;44.552;-0.848;2023-04-25T10:40:23;3.45;;;2.70;;
42742;SDS011;28397;44.552;-0.848;2023-04-25T10:42:49;5.65;;;2.58;;
42742;SDS011;28397;44.552;-0.848;2023-04-25T10:45:22;3.22;;;2.72;;
42742;SDS011;28397;44.552;-0.848;2023-04-25T10:47:48;4.35;;;2.80;;
42742;SDS011;28397;44.552;-0.848;2023-04-25T10:50:14;3.75;;;2.50;;
42742;SDS011;28397;44.552;-0.848;2023-04-25T10:52:43;4.68;;;2.40;;
42742;SDS011;28397;44.552;-0.848;2023-04-25T10:55:09;3.90;;;2.72;;
42742;SDS011;28397;44.552;-0.848;2023-04-25T10:57:44;3.20;;;2.53;;
42742;SDS011;28397;44.552;-0.848;2023-04-25T11:00:15;3.53;;;2.58;;
42742;SDS011;28397;44.552;-0.848;2023-04-25T11:02:46;3.67;;;2.80;;
42742;SDS011;28397;44.552;-0.848;2023-04-25T11:07:53;3.03;;;2.72;;
42742;SDS011;28397;44.552;-0.848;2023-04-25T11:10:25;4.85;;;3.03;;
42742;SDS011;28397;44.552;-0.848;2023-04-25T11:15:22;3.03;;;2.60;;
42742;SDS011;28397;44.552;-0.848;2023-04-25T11:17:50;4.07;;;2.75;;
42742;SDS011;28397;44.552;-0.848;2023-04-25T11:20:16;3.47;;;2.58;;
42742;SDS011;28397;44.552;-0.848;2023-04-25T11:22:45;3.75;;;2.63;;
42742;SDS011;28397;44.552;-0.848;2023-04-25T11:25:12;4.85;;;2.90;;
42742;SDS011;28397;44.552;-0.848;2023-04-25T11:27:49;5.03;;;2.97;;
42742;SDS011;28397;44.552;-0.848;2023-04-25T11:30:19;3.05;;;2.55;;
42742;SDS011;28397;44.552;-0.848;2023-04-25T11:32:46;4.10;;;3.13;;
42742;SDS011;28397;44.552;-0.848;2023-04-25T11:35:12;4.57;;;3.25;;
42742;SDS011;28397;44.552;-0.848;2023-04-25T11:37:41;2.60;;;2.40;;
42742;SDS011;28397;44.552;-0.848;2023-04-25T11:40:08;2.70;;;2.50;;
42742;SDS011;28397;44.552;-0.848;2023-04-25T11:42:38;3.97;;;2.42;;
42742;SDS011;28397;44.552;-0.848;2023-04-25T11:45:05;3.60;;;2.00;;
42742;SDS011;28397;44.552;-0.848;2023-04-25T11:47:31;2.00;;;1.90;;
42742;SDS011;28397;44.552;-0.848;2023-04-25T11:50:01;2.60;;;2.08;;
42742;SDS011;28397;44.552;-0.848;2023-04-25T11:52:41;2.13;;;2.00;;
42742;SDS011;28397;44.552;-0.848;2023-04-25T11:55:08;2.45;;;2.25;;
42742;SDS011;28397;44.552;-0.848;2023-04-25T11:57:38;2.88;;;2.58;;
42742;SDS011;28397;44.552;-0.848;2023-04-25T12:00:07;2.50;;;2.28;;
42742;SDS011;28397;44.552;-0.848;2023-04-25T12:02:34;2.35;;;2.15;;
42742;SDS011;28397;44.552;-0.848;2023-04-25T12:05:01;2.22;;;2.03;;
42742;SDS011;28397;44.552;-0.848;2023-04-25T12:07:31;3.55;;;2.40;;
42742;SDS011;28397;44.552;-0.848;2023-04-25T12:09:56;2.40;;;2.20;;
42742;SDS011;28397;44.552;-0.848;2023-04-25T12:12:26;3.28;;;2.03;;
42742;SDS011;28397;44.552;-0.848;2023-04-25T12:14:53;2.28;;;2.05;;
42742;SDS011;28397;44.552;-0.848;2023-04-25T12:17:20;3.35;;;1.98;;
42742;SDS011;28397;44.552;-0.848;2023-04-25T12:19:47;3.10;;;1.90;;
42742;SDS011;28397;44.552;-0.848;2023-04-25T12:22:20;3.58;;;2.10;;
42742;SDS011;28397;44.552;-0.848;2023-04-25T12:24:47;3.80;;;2.10;;
42742;SDS011;28397;44.552;-0.848;2023-04-25T12:27:14;3.60;;;1.90;;
42742;SDS011;28397;44.552;-0.848;2023-04-25T12:29:49;3.10;;;2.03;;
42742;SDS011;28397;44.552;-0.848;2023-04-25T12:32:19;2.17;;;1.88;;
42742;SDS011;28397;44.552;-0.848;2023-04-25T12:34:45;1.75;;;1.60;;
42742;SDS011;28397;44.552;-0.848;2023-04-25T12:37:11;4.10;;;1.95;;
42742;SDS011;28397;44.552;-0.848;2023-04-25T12:39:36;2.22;;;1.92;;
42742;SDS011;28397;44.552;-0.848;2023-04-25T12:42:02;2.88;;;2.00;;
42742;SDS011;28397;44.552;-0.848;2023-04-25T12:44:28;2.65;;;2.10;;
42742;SDS011;28397;44.552;-0.848;2023-04-25T12:46:54;2.17;;;1.90;;
42742;SDS011;28397;44.552;-0.848;2023-04-25T12:49:20;2.17;;;1.70;;
42742;SDS011;28397;44.552;-0.848;2023-04-25T12:51:45;2.90;;;1.60;;
42742;SDS011;28397;44.552;-0.848;2023-04-25T12:54:14;2.08;;;1.80;;
42742;SDS011;28397;44.552;-0.848;2023-04-25T12:56:40;1.90;;;1.70;;
42742;SDS011;28397;44.552;-0.848;2023-04-25T12:59:06;4.95;;;2.17;;
42742;SDS011;28397;44.552;-0.848;2023-04-25T13:01:32;2.53;;;1.70;;
42742;SDS011;28397;44.552;-0.848;2023-04-25T13:03:58;1.90;;;1.70;;
42742;SDS011;28397;44.552;-0.848;2023-04-25T13:06:23;2.83;;;1.73;;
42742;SDS011;28397;44.552;-0.848;2023-04-25T13:08:49;2.60;;;1.60;;
42742;SDS011;28397;44.552;-0.848;2023-04-25T13:11:15;2.88;;;2.25;;
42742;SDS011;28397;44.552;-0.848;2023-04-25T13:13:41;3.35;;;2.05;;
42742;SDS011;28397;44.552;-0.848;2023-04-25T13:16:07;2.92;;;2.30;;
42742;SDS011;28397;44.552;-0.848;2023-04-25T13:18:33;2.53;;;2.10;;
42742;SDS011;28397;44.552;-0.848;2023-04-25T13:20:59;1.80;;;1.70;;
42742;SDS011;28397;44.552;-0.848;2023-04-25T13:23:27;2.10;;;1.90;;
42742;SDS011;28397;44.552;-0.848;2023-04-25T13:25:54;2.80;;;1.92;;
42742;SDS011;28397;44.552;-0.848;2023-04-25T13:28:20;2.60;;;1.98;;
42742;SDS011;28397;44.552;-0.848;2023-04-25T13:30:46;2.30;;;2.10;;
42742;SDS011;28397;44.552;-0.848;2023-04-25T13:33:13;2.20;;;2.00;;
42742;SDS011;28397;44.552;-0.848;2023-04-25T13:35:40;2.85;;;1.90;;
42742;SDS011;28397;44.552;-0.848;2023-04-25T13:38:06;2.42;;;2.22;;
42742;SDS011;28397;44.552;-0.848;2023-04-25T13:40:32;3.90;;;2.90;;
42742;SDS011;28397;44.552;-0.848;2023-04-25T13:42:58;5.50;;;5.00;;
42742;SDS011;28397;44.552;-0.848;2023-04-25T13:45:24;5.88;;;5.28;;
42742;SDS011;28397;44.552;-0.848;2023-04-25T13:47:50;5.90;;;5.40;;
42742;SDS011;28397;44.552;-0.848;2023-04-25T13:50:16;5.75;;;5.20;;
42742;SDS011;28397;44.552;-0.848;2023-04-25T13:52:41;5.85;;;5.07;;
42742;SDS011;28397;44.552;-0.848;2023-04-25T13:55:08;5.60;;;5.10;;
42742;SDS011;28397;44.552;-0.848;2023-04-25T13:57:34;5.47;;;5.03;;
42742;SDS011;28397;44.552;-0.848;2023-04-25T14:00:01;5.05;;;4.55;;
42742;SDS011;28397;44.552;-0.848;2023-04-25T14:02:46;5.38;;;4.03;;
42742;SDS011;28397;44.552;-0.848;2023-04-25T14:05:11;4.20;;;3.80;;
42742;SDS011;28397;44.552;-0.848;2023-04-25T14:07:38;4.18;;;3.72;;
42742;SDS011;28397;44.552;-0.848;2023-04-25T14:10:04;3.97;;;3.58;;
42742;SDS011;28397;44.552;-0.848;2023-04-25T14:12:30;3.33;;;3.03;;
42742;SDS011;28397;44.552;-0.848;2023-04-25T14:14:57;4.10;;;3.05;;
42742;SDS011;28397;44.552;-0.848;2023-04-25T14:17:23;4.47;;;3.60;;
42742;SDS011;28397;44.552;-0.848;2023-04-25T14:19:49;3.50;;;3.20;;
42742;SDS011;28397;44.552;-0.848;2023-04-25T14:22:15;3.25;;;2.95;;
42742;SDS011;28397;44.552;-0.848;2023-04-25T14:24:41;2.95;;;2.75;;
42742;SDS011;28397;44.552;-0.848;2023-04-25T14:27:07;2.40;;;2.20;;
42742;SDS011;28397;44.552;-0.848;2023-04-25T14:29:33;2.92;;;1.80;;
42742;SDS011;28397;44.552;-0.848;2023-04-25T14:31:59;2.60;;;1.95;;
42742;SDS011;28397;44.552;-0.848;2023-04-25T14:34:25;2.38;;;1.90;;
42742;SDS011;28397;44.552;-0.848;2023-04-25T14:36:51;2.67;;;1.50;;
42742;SDS011;28397;44.552;-0.848;2023-04-25T14:39:17;2.33;;;1.63;;
42742;SDS011;28397;44.552;-0.848;2023-04-25T14:41:43;1.70;;;1.60;;
42742;SDS011;28397;44.552;-0.848;2023-04-25T14:44:09;1.50;;;1.40;;
42742;SDS011;28397;44.552;-0.848;2023-04-25T14:46:35;2.42;;;1.50;;
42742;SDS011;28397;44.552;-0.848;2023-04-25T14:49:01;1.63;;;1.20;;